Airfield :
LOGIN :

Register | Disclaimer

   EN    FR    IT 

 










Legend :    VFR   Marginal VFR   IFR   Intensive IFR   Very Intensive IFR
Visi :
Ceiling :
>= 8 km
>= 3000ft
5 to 8 km
1000 to 3000 ft
1500m to 5 km
500 to 1000 ft
800 to 1500m
200 to 500 ft
< 800m
< 200 ft
Symbols :   Thunderstorms  Fog  Heavy snow  Heavy precipitations  Wind > 20 kt
SIGMETs :     Misc.  Thunderstorms  Icing  Turbulence  Mountain Waves  Volcanic Ashes







- Airport Elevation : 80 ft
- IATA code : LPL
- Download approach charts


EGGP - Liverpool John Lennon

CURRENT METAR :
  • 260250Z VRB01KT 9999 FEW020 16/15 Q1019

EXPIRED METARs :
  • 260220Z 07002KT 9999 FEW020 15/14 Q1019
  • 260150Z 03003KT 9999 FEW020 17/16 Q1019
  • 260120Z 32003KT CAVOK 17/16 Q1019
  • 260050Z 32004KT CAVOK 16/15 Q1019
  • 260020Z 35003KT CAVOK 16/15 Q1019

TAF TAF EGGP
Valid from the 26 at 00:00 until the 27 at 00:00 UTC


252255Z 2600/2624 31005KT 9999 FEW035
TEMPO 2600/2609 6000
PROB30
TEMPO 2603/2609 BKN006
PROB30
TEMPO 2609/2612 9000
ATIS : +44 151 907 2000 (option 5 or ext 5150)
Met : +44 871 750 5150
No reported NOTAMs for that airfield.



MET'MAP, your aeronautical weather chart ! - Copyright ORBIFLY December 2007 - Disclaimer

ORBIFLY MET'MAP TEAM :

Programming & Development : Alexandra Zaïnal
Concept & Development : Baudouin d'Aumeries
Co-Development & Prog : Marc-Olivier Méhu
Technical & hardware support : Manuel Goepfert

Contact : metmap@orbifly.com




SOURCES & CREDITS :

   NOAA